Time;durP1;ratioP1;P1;durP2;ratioP2;P2;SDS_P1;SDS_P2;PMS_P1;PMS_P2;Temp;Humidity;BMP_temperature;BMP_pressure;BME280_temperature;BME280_humidity;BME280_pressure;Samples;Min_cycle;Max_cycle;Signal;HPM_P1;HPM_P2
2021/08/14 00:00:00;;;;;;;16.70;9.48;;;19.70;72.70;;;;;;5054173;28;20048;-72
2021/08/14 00:02:26;;;;;;;12.75;9.23;;;19.70;72.80;;;;;;5054194;28;20025;-72
2021/08/14 00:04:52;;;;;;;14.27;10.60;;;19.70;72.90;;;;;;5054199;28;20472;-72
2021/08/14 00:07:18;;;;;;;16.85;10.43;;;19.70;72.90;;;;;;5054108;28;20102;-72
2021/08/14 00:09:44;;;;;;;17.38;11.68;;;19.60;72.90;;;;;;5053993;28;20037;-71
2021/08/14 00:12:10;;;;;;;18.77;11.90;;;19.70;73.00;;;;;;5054075;28;20029;-71
2021/08/14 00:14:36;;;;;;;16.05;10.80;;;19.70;73.00;;;;;;5054150;28;20093;-70
2021/08/14 00:17:02;;;;;;;17.02;10.50;;;19.70;73.00;;;;;;5054219;28;20696;-71
2021/08/14 00:19:28;;;;;;;15.60;10.82;;;19.60;72.90;;;;;;5053597;28;20040;-72
2021/08/14 00:21:53;;;;;;;16.52;10.55;;;19.60;73.00;;;;;;5053705;28;20013;-72
2021/08/14 00:24:19;;;;;;;17.85;11.35;;;19.60;73.20;;;;;;5053928;28;20021;-72
2021/08/14 00:26:45;;;;;;;17.85;11.00;;;19.60;73.20;;;;;;5053722;28;20032;-72
2021/08/14 00:29:11;;;;;;;14.63;10.38;;;19.60;73.20;;;;;;5052440;28;20032;-72
2021/08/14 00:31:37;;;;;;;18.83;10.77;;;19.50;73.20;;;;;;5053730;28;20025;-71
2021/08/14 00:34:02;;;;;;;18.15;12.15;;;19.50;73.40;;;;;;5053455;28;20401;-72
2021/08/14 00:36:28;;;;;;;16.50;11.20;;;19.50;73.50;;;;;;5053661;28;20082;-73
2021/08/14 00:38:54;;;;;;;15.82;10.98;;;19.40;73.50;;;;;;5052212;28;20031;-71
2021/08/14 00:41:20;;;;;;;17.23;10.55;;;19.40;73.70;;;;;;5053883;28;20365;-77
2021/08/14 00:43:48;;;;;;;14.85;10.68;;;19.40;73.80;;;;;;5053681;28;20036;-77
2021/08/14 00:46:14;;;;;;;15.93;10.85;;;19.40;73.90;;;;;;5053786;28;20432;-76
2021/08/14 00:48:40;;;;;;;15.10;11.07;;;19.40;73.90;;;;;;5053498;28;20463;-76
2021/08/14 00:51:08;;;;;;;14.35;10.65;;;19.40;74.00;;;;;;5053458;28;20051;-77
2021/08/14 00:53:34;;;;;;;15.77;10.63;;;19.30;74.00;;;;;;5053620;28;20467;-77
2021/08/14 00:56:00;;;;;;;17.52;13.10;;;19.40;74.10;;;;;;5053200;28;20052;-76
2021/08/14 00:58:26;;;;;;;16.25;11.98;;;19.30;74.10;;;;;;5053086;28;20371;-76
2021/08/14 01:00:51;;;;;;;14.65;10.82;;;19.30;74.20;;;;;;5053401;28;20017;-77
2021/08/14 01:03:18;;;;;;;20.17;11.65;;;19.30;74.10;;;;;;5052999;28;20486;-75
2021/08/14 01:05:46;;;;;;;20.38;12.32;;;19.30;74.20;;;;;;5052671;28;20097;-76
2021/08/14 01:08:15;;;;;;;17.75;10.82;;;19.30;74.30;;;;;;5053072;28;20155;-77
2021/08/14 01:10:41;;;;;;;17.15;10.98;;;19.20;74.30;;;;;;5052775;28;20025;-75
2021/08/14 01:13:07;;;;;;;20.48;11.88;;;19.20;74.30;;;;;;5053060;28;20036;-77
2021/08/14 01:15:33;;;;;;;21.67;11.50;;;19.20;74.50;;;;;;5052962;28;20028;-77
2021/08/14 01:17:59;;;;;;;14.95;11.05;;;19.20;74.50;;;;;;5052759;28;20463;-76
2021/08/14 01:20:25;;;;;;;15.15;11.23;;;19.10;74.50;;;;;;5053245;28;20473;-77
2021/08/14 01:22:51;;;;;;;15.10;9.88;;;19.10;74.60;;;;;;5052878;28;20025;-77
2021/08/14 01:25:19;;;;;;;14.60;9.50;;;19.10;74.70;;;;;;5052896;28;20028;-77
2021/08/14 01:27:45;;;;;;;17.40;11.43;;;19.00;74.70;;;;;;5052968;28;20802;-76
2021/08/14 01:30:13;;;;;;;12.35;10.20;;;19.10;74.80;;;;;;5052844;28;20021;-76
2021/08/14 01:32:39;;;;;;;15.35;10.48;;;19.00;74.80;;;;;;5052833;28;20727;-76
2021/08/14 01:35:06;;;;;;;15.30;10.15;;;19.00;74.90;;;;;;5052683;28;20025;-77
2021/08/14 01:37:33;;;;;;;14.93;10.95;;;19.00;75.00;;;;;;5052656;28;20025;-76
2021/08/14 01:39:59;;;;;;;17.42;10.63;;;18.90;75.10;;;;;;5052787;28;20033;-77
2021/08/14 01:42:25;;;;;;;15.65;10.40;;;18.90;75.10;;;;;;5052682;28;20017;-77
2021/08/14 01:44:51;;;;;;;13.75;10.50;;;18.90;75.80;;;;;;5052373;28;20048;-76
2021/08/14 01:47:17;;;;;;;29.13;22.05;;;18.90;75.30;;;;;;5052231;28;20123;-76
2021/08/14 01:49:42;;;;;;;26.00;19.50;;;18.90;75.50;;;;;;5052231;28;20437;-76
2021/08/14 01:52:13;;;;;;;19.75;12.95;;;18.90;75.60;;;;;;5052183;28;20025;-76
2021/08/14 01:54:40;;;;;;;20.55;14.02;;;18.90;75.80;;;;;;5052191;28;20035;-76
2021/08/14 01:57:06;;;;;;;21.23;13.15;;;18.90;75.80;;;;;;5051894;28;20394;-76
2021/08/14 01:59:33;;;;;;;19.98;12.65;;;18.80;75.70;;;;;;5051958;28;20364;-76
2021/08/14 02:01:59;;;;;;;20.23;10.95;;;18.90;75.80;;;;;;5052320;28;20032;-76
2021/08/14 02:04:25;;;;;;;16.45;11.27;;;18.90;75.80;;;;;;5051026;28;20059;-76
2021/08/14 02:06:51;;;;;;;15.63;10.35;;;18.90;75.70;;;;;;5050798;28;20364;-76
2021/08/14 02:09:17;;;;;;;16.88;10.80;;;18.90;75.80;;;;;;5051987;28;20067;-76
2021/08/14 02:11:42;;;;;;;17.77;12.88;;;18.90;75.70;;;;;;5052096;28;20037;-77
2021/08/14 02:14:08;;;;;;;17.92;11.68;;;18.80;75.60;;;;;;5052115;28;20033;-76
2021/08/14 02:16:35;;;;;;;18.58;12.07;;;18.80;75.70;;;;;;5051494;28;20029;-76
2021/08/14 02:19:02;;;;;;;19.13;13.30;;;18.80;75.80;;;;;;5051981;28;20056;-75
2021/08/14 02:21:28;;;;;;;18.25;12.18;;;18.80;75.70;;;;;;5052189;28;20013;-76
2021/08/14 02:23:54;;;;;;;18.30;12.52;;;18.80;75.80;;;;;;5052120;28;20040;-76
2021/08/14 02:26:20;;;;;;;16.00;11.82;;;18.70;75.80;;;;;;5052160;28;20472;-75
2021/08/14 02:28:46;;;;;;;19.08;11.93;;;18.70;76.00;;;;;;5052079;28;20040;-74
2021/08/14 02:31:12;;;;;;;17.35;11.95;;;18.60;76.10;;;;;;5052175;28;20500;-76
2021/08/14 02:33:53;;;;;;;14.60;11.52;;;18.60;76.20;;;;;;5052134;28;20017;-76
2021/08/14 02:36:19;;;;;;;19.50;10.93;;;18.60;76.50;;;;;;5051944;28;20112;-75
2021/08/14 02:38:45;;;;;;;17.95;11.48;;;18.60;76.50;;;;;;5051461;28;20422;-75
2021/08/14 02:41:10;;;;;;;17.17;11.63;;;18.60;76.50;;;;;;5051591;28;20017;-76
2021/08/14 02:43:37;;;;;;;16.75;11.98;;;18.60;76.40;;;;;;5051871;28;20029;-75
2021/08/14 02:46:03;;;;;;;20.90;11.02;;;18.60;76.50;;;;;;5052017;28;20487;-74
2021/08/14 02:48:30;;;;;;;17.45;11.50;;;18.60;76.50;;;;;;5051687;28;20425;-75
2021/08/14 02:50:57;;;;;;;17.60;12.07;;;18.60;76.60;;;;;;5051860;28;20487;-74
2021/08/14 02:53:35;;;;;;;22.65;12.38;;;18.60;76.50;;;;;;5051854;28;20036;-76
2021/08/14 02:56:01;;;;;;;16.63;11.73;;;18.70;76.60;;;;;;5051714;28;20041;-76
2021/08/14 02:58:28;;;;;;;19.73;11.75;;;18.80;76.50;;;;;;5050448;28;20589;-73
2021/08/14 03:00:54;;;;;;;20.95;12.00;;;18.90;76.20;;;;;;5050554;28;20029;-73
2021/08/14 03:03:20;;;;;;;17.65;11.57;;;19.10;75.80;;;;;;5051329;28;20025;-72
2021/08/14 03:05:45;;;;;;;18.88;11.55;;;19.40;75.50;;;;;;5051351;28;20033;-72
2021/08/14 03:08:11;;;;;;;17.25;12.30;;;19.80;74.80;;;;;;5051617;28;20034;-72
2021/08/14 03:10:38;;;;;;;15.32;10.30;;;20.30;73.70;;;;;;5051473;28;20037;-72
2021/08/14 03:13:04;;;;;;;20.67;12.45;;;20.80;72.50;;;;;;5051363;28;20021;-71
2021/08/14 03:15:30;;;;;;;15.18;11.45;;;21.40;71.20;;;;;;5051296;28;20036;-72
2021/08/14 03:17:56;;;;;;;16.20;11.00;;;21.90;69.90;;;;;;5051024;28;20143;-73
2021/08/14 03:20:21;;;;;;;14.23;10.93;;;22.40;68.50;;;;;;5051222;28;20017;-71
2021/08/14 03:22:47;;;;;;;19.73;10.95;;;23.10;67.20;;;;;;5051197;28;20025;-71
2021/08/14 03:25:13;;;;;;;16.23;10.98;;;23.60;65.80;;;;;;5051239;28;20150;-71
2021/08/14 03:27:39;;;;;;;15.75;11.27;;;24.20;64.40;;;;;;5050927;28;20029;-71
2021/08/14 03:30:05;;;;;;;17.13;10.68;;;24.80;63.00;;;;;;5054915;28;20021;-73
2021/08/14 03:32:31;;;;;;;16.90;11.18;;;25.40;61.70;;;;;;5054965;28;20086;-70
2021/08/14 03:34:56;;;;;;;16.23;11.02;;;25.90;60.40;;;;;;5054773;28;20101;-71
2021/08/14 03:37:22;;;;;;;18.58;10.85;;;26.50;59.30;;;;;;5054498;28;20035;-72
2021/08/14 03:39:48;;;;;;;18.08;10.63;;;27.00;58.10;;;;;;5054488;28;20021;-72
2021/08/14 03:42:13;;;;;;;22.60;10.98;;;27.50;56.90;;;;;;5054415;28;20016;-72
2021/08/14 03:44:39;;;;;;;19.65;11.05;;;28.10;55.90;;;;;;5054521;28;20536;-72
2021/08/14 03:47:05;;;;;;;14.80;10.07;;;28.60;54.90;;;;;;5054430;28;20681;-72
2021/08/14 03:49:31;;;;;;;16.65;10.20;;;29.10;54.10;;;;;;5054370;28;20035;-72
2021/08/14 03:51:56;;;;;;;13.45;10.35;;;29.60;53.20;;;;;;5054547;28;20104;-72
2021/08/14 03:54:22;;;;;;;17.60;10.25;;;30.20;52.60;;;;;;5054305;28;20039;-72
2021/08/14 03:56:48;;;;;;;18.02;10.15;;;30.70;51.40;;;;;;5054107;28;20143;-72
2021/08/14 03:59:13;;;;;;;15.38;10.52;;;31.30;50.60;;;;;;5054129;28;20036;-72
2021/08/14 04:01:39;;;;;;;13.60;10.23;;;31.90;49.80;;;;;;5054239;28;20368;-72
2021/08/14 04:04:05;;;;;;;11.27;9.77;;;32.40;49.10;;;;;;5054220;28;20028;-72
2021/08/14 04:06:30;;;;;;;15.25;10.38;;;32.90;48.20;;;;;;5054173;28;20376;-72
2021/08/14 04:08:56;;;;;;;15.73;10.43;;;33.40;47.50;;;;;;5053817;28;20029;-72
2021/08/14 04:11:22;;;;;;;14.93;9.90;;;33.80;46.90;;;;;;5053994;28;20056;-72
2021/08/14 04:13:47;;;;;;;18.02;10.60;;;34.30;46.40;;;;;;5053696;28;20032;-72
2021/08/14 04:16:13;;;;;;;12.93;9.75;;;34.80;45.70;;;;;;5053697;28;20467;-72
2021/08/14 04:18:39;;;;;;;15.38;10.68;;;35.30;45.20;;;;;;5053729;28;20067;-72
2021/08/14 04:21:05;;;;;;;20.55;10.60;;;35.80;44.80;;;;;;5053523;28;20017;-72
2021/08/14 04:23:33;;;;;;;13.32;8.95;;;36.30;44.10;;;;;;5053614;28;20034;-72
2021/08/14 04:25:59;;;;;;;15.65;9.68;;;36.80;43.50;;;;;;5053364;28;20108;-72
2021/08/14 04:28:24;;;;;;;13.20;9.20;;;37.30;43.00;;;;;;5053129;28;20099;-72
2021/08/14 04:30:50;;;;;;;13.10;8.70;;;37.70;42.20;;;;;;5053574;28;20028;-72
2021/08/14 04:33:16;;;;;;;13.65;8.10;;;38.10;41.80;;;;;;5053468;28;20021;-72
2021/08/14 04:35:41;;;;;;;10.52;7.95;;;38.40;41.40;;;;;;5053607;28;20028;-72
2021/08/14 04:38:07;;;;;;;13.80;8.07;;;38.70;40.90;;;;;;5053226;28;20790;-72
2021/08/14 04:40:33;;;;;;;12.02;7.75;;;39.10;40.50;;;;;;5052516;28;20484;-72
2021/08/14 04:42:58;;;;;;;16.60;8.70;;;39.30;40.10;;;;;;5052902;28;20029;-73
2021/08/14 04:45:24;;;;;;;19.92;8.45;;;39.60;39.80;;;;;;5053249;28;20025;-73
2021/08/14 04:47:51;;;;;;;9.15;7.18;;;39.90;39.30;;;;;;5053280;28;20100;-72
2021/08/14 04:50:16;;;;;;;10.35;7.65;;;40.20;39.00;;;;;;5053218;28;20033;-72
2021/08/14 04:52:42;;;;;;;10.82;8.10;;;40.40;38.70;;;;;;5052944;28;20025;-73
2021/08/14 04:55:09;;;;;;;12.07;8.00;;;40.40;38.40;;;;;;5052740;28;20459;-72
2021/08/14 04:57:35;;;;;;;9.63;6.95;;;40.30;38.40;;;;;;5052974;28;20017;-72
2021/08/14 05:00:01;;;;;;;10.40;6.68;;;40.30;38.50;;;;;;5052846;28;20094;-71
2021/08/14 05:02:26;;;;;;;12.20;8.35;;;40.50;38.30;;;;;;5052987;28;20056;-72
2021/08/14 05:04:52;;;;;;;10.45;8.15;;;40.80;38.10;;;;;;5052668;28;20027;-72
2021/08/14 05:07:18;;;;;;;9.63;7.65;;;41.10;37.90;;;;;;5052758;28;20021;-72
2021/08/14 05:09:43;;;;;;;12.98;7.32;;;41.40;37.50;;;;;;5052619;28;20380;-72
2021/08/14 05:12:10;;;;;;;12.88;6.93;;;41.80;37.40;;;;;;5052471;28;20040;-73
2021/08/14 05:14:36;;;;;;;8.98;6.95;;;42.20;36.90;;;;;;5052473;28;20037;-71
2021/08/14 05:17:03;;;;;;;13.07;6.70;;;42.40;36.50;;;;;;5052416;28;20367;-71
2021/08/14 05:19:29;;;;;;;12.35;6.18;;;42.60;36.30;;;;;;5052075;28;20032;-73
2021/08/14 05:21:54;;;;;;;8.23;5.72;;;42.90;36.00;;;;;;5052216;28;20021;-73
2021/08/14 05:24:21;;;;;;;10.73;6.35;;;43.10;35.70;;;;;;5052252;28;20048;-72
2021/08/14 05:26:47;;;;;;;8.40;5.50;;;43.20;35.20;;;;;;5052447;28;20025;-73
2021/08/14 05:29:12;;;;;;;12.13;6.25;;;43.30;35.00;;;;;;5051893;28;20460;-73
2021/08/14 05:31:38;;;;;;;9.25;5.53;;;43.40;35.00;;;;;;5052089;28;20021;-73
2021/08/14 05:34:05;;;;;;;12.70;6.30;;;43.50;35.00;;;;;;5051952;28;20029;-73
2021/08/14 05:36:32;;;;;;;9.00;6.93;;;43.60;34.80;;;;;;5052000;28;20036;-73
2021/08/14 05:38:58;;;;;;;6.97;5.53;;;43.70;34.60;;;;;;5051508;28;20021;-74
2021/08/14 05:41:24;;;;;;;7.75;6.20;;;43.80;34.50;;;;;;5051485;28;20063;-73
2021/08/14 05:43:49;;;;;;;17.95;5.68;;;43.80;34.50;;;;;;5051942;28;20100;-73
2021/08/14 05:46:15;;;;;;;8.30;5.95;;;43.80;34.50;;;;;;5051861;28;20441;-75
2021/08/14 05:48:41;;;;;;;8.25;5.30;;;43.90;34.40;;;;;;5051434;28;20036;-74
2021/08/14 05:51:10;;;;;;;11.82;5.15;;;44.10;34.30;;;;;;5050989;28;20488;-73
2021/08/14 05:53:35;;;;;;;10.65;6.30;;;44.30;34.20;;;;;;5050156;28;20427;-73
2021/08/14 05:56:01;;;;;;;14.85;5.70;;;44.50;33.90;;;;;;5050231;28;20152;-73
2021/08/14 05:58:27;;;;;;;8.20;5.47;;;44.40;33.70;;;;;;5049970;28;20383;-73
2021/08/14 06:00:52;;;;;;;8.35;5.25;;;44.20;33.50;;;;;;5050227;28;20380;-72
2021/08/14 06:03:18;;;;;;;11.45;5.25;;;44.10;33.60;;;;;;5050826;28;20096;-78
2021/08/14 06:05:47;;;;;;;5.82;5.05;;;44.10;33.50;;;;;;5051056;28;20056;-79
2021/08/14 06:08:13;;;;;;;8.45;5.03;;;44.40;33.50;;;;;;5048449;28;20452;-77
2021/08/14 06:10:38;;;;;;;5.85;5.22;;;44.70;33.30;;;;;;5050780;28;20013;-78
2021/08/14 06:13:04;;;;;;;5.43;4.93;;;44.80;32.80;;;;;;5051106;28;20028;-77
2021/08/14 06:15:30;;;;;;;5.43;4.93;;;44.50;32.50;;;;;;5051400;28;20020;-77
2021/08/14 06:17:56;;;;;;;8.95;5.15;;;44.30;32.80;;;;;;5050519;28;20028;-77
2021/08/14 06:20:22;;;;;;;6.60;4.82;;;44.20;33.10;;;;;;5050751;28;20024;-77
2021/08/14 06:22:47;;;;;;;8.40;5.90;;;44.40;32.90;;;;;;5051159;28;20031;-77
2021/08/14 06:25:14;;;;;;;6.32;5.60;;;44.50;32.70;;;;;;5050840;28;20036;-77
2021/08/14 06:27:40;;;;;;;11.07;5.85;;;44.30;32.50;;;;;;5051038;28;20440;-77
2021/08/14 06:30:07;;;;;;;7.13;6.50;;;44.00;32.80;;;;;;5050874;28;20037;-78
2021/08/14 06:32:33;;;;;;;6.00;5.40;;;43.70;32.90;;;;;;5050786;28;20025;-77
2021/08/14 06:34:59;;;;;;;5.35;4.88;;;43.70;33.00;;;;;;5050728;28;20025;-77
2021/08/14 06:37:25;;;;;;;14.60;5.70;;;43.70;33.10;;;;;;5050365;28;20021;-77
2021/08/14 06:39:50;;;;;;;5.78;4.85;;;43.80;32.90;;;;;;5050487;28;20028;-77
2021/08/14 06:42:16;;;;;;;8.50;5.18;;;44.00;32.80;;;;;;5050966;28;20515;-77
2021/08/14 06:44:42;;;;;;;7.03;4.78;;;44.00;32.70;;;;;;5050830;28;20024;-78
2021/08/14 06:47:08;;;;;;;6.60;4.78;;;43.70;32.50;;;;;;5050356;28;20086;-78
2021/08/14 06:49:33;;;;;;;7.22;4.90;;;43.30;32.90;;;;;;5051359;28;20108;-78
2021/08/14 06:51:59;;;;;;;6.63;4.40;;;43.30;33.10;;;;;;5051646;28;20033;-78
2021/08/14 06:54:25;;;;;;;6.63;4.50;;;43.40;33.10;;;;;;5051780;28;20028;-78
2021/08/14 06:56:50;;;;;;;4.63;3.90;;;43.50;32.90;;;;;;5051433;28;20128;-79
2021/08/14 06:59:16;;;;;;;4.82;4.30;;;43.30;32.70;;;;;;5050301;28;20112;-78
2021/08/14 07:01:42;;;;;;;8.93;4.50;;;43.40;32.70;;;;;;5051495;28;20032;-78
2021/08/14 07:04:08;;;;;;;4.78;4.30;;;43.50;32.70;;;;;;5053647;28;20039;-78
2021/08/14 07:06:33;;;;;;;6.93;4.18;;;43.60;32.80;;;;;;5055532;28;20082;-78
2021/08/14 07:08:59;;;;;;;7.38;4.53;;;43.60;32.80;;;;;;5055419;28;20021;-79
2021/08/14 07:11:25;;;;;;;5.35;4.50;;;43.50;32.80;;;;;;5055308;28;20052;-77
2021/08/14 07:13:51;;;;;;;5.45;3.92;;;43.20;33.00;;;;;;5055357;28;20085;-78
2021/08/14 07:16:18;;;;;;;5.72;4.40;;;42.60;32.60;;;;;;5054403;28;20033;-78
2021/08/14 07:18:43;;;;;;;8.63;5.53;;;41.70;33.10;;;;;;5054590;28;20036;-78
2021/08/14 07:21:09;;;;;;;9.73;4.85;;;41.30;33.80;;;;;;5054796;28;20021;-78
2021/08/14 07:23:35;;;;;;;7.15;4.22;;;40.70;34.10;;;;;;5054574;28;20118;-78
2021/08/14 07:26:01;;;;;;;6.45;4.43;;;40.40;34.40;;;;;;5054846;28;20021;-78
2021/08/14 07:28:27;;;;;;;6.60;4.53;;;40.40;34.40;;;;;;5054592;28;20457;-78
2021/08/14 07:30:53;;;;;;;5.57;4.80;;;40.20;34.40;;;;;;5053976;28;20021;-78
2021/08/14 07:33:20;;;;;;;9.48;5.43;;;40.00;34.70;;;;;;5054339;28;20051;-78
2021/08/14 07:35:47;;;;;;;7.53;4.63;;;39.80;34.90;;;;;;5054511;28;20171;-78
2021/08/14 07:38:14;;;;;;;9.15;4.30;;;39.80;34.80;;;;;;5053750;28;20036;-78
2021/08/14 07:40:40;;;;;;;5.90;4.50;;;39.70;35.20;;;;;;5052683;28;20418;-78
2021/08/14 07:43:08;;;;;;;8.88;4.70;;;39.70;35.30;;;;;;5054012;28;20100;-79
2021/08/14 07:45:34;;;;;;;7.13;6.20;;;39.90;35.40;;;;;;5053666;28;20021;-78
2021/08/14 07:48:04;;;;;;;6.75;5.03;;;39.90;35.30;;;;;;5053792;28;20055;-79
2021/08/14 07:50:30;;;;;;;11.53;6.17;;;39.70;35.40;;;;;;5054159;28;20043;-78
2021/08/14 07:52:59;;;;;;;10.38;4.95;;;39.50;35.30;;;;;;5053883;28;20484;-78
2021/08/14 07:55:26;;;;;;;5.78;4.82;;;39.40;35.70;;;;;;5052529;28;20041;-79
2021/08/14 07:57:52;;;;;;;7.03;4.82;;;39.30;35.70;;;;;;5054328;28;20027;-79
2021/08/14 08:00:21;;;;;;;12.13;6.03;;;39.30;35.80;;;;;;5054219;28;20383;-78
2021/08/14 08:02:47;;;;;;;9.68;4.82;;;38.90;36.00;;;;;;5054012;28;20324;-80
2021/08/14 08:05:14;;;;;;;10.85;7.63;;;38.50;36.30;;;;;;5053553;28;20036;-79
2021/08/14 08:07:45;;;;;;;12.55;5.20;;;38.30;36.90;;;;;;5053602;28;20017;-77
2021/08/14 08:10:15;;;;;;;6.05;5.10;;;38.20;37.10;;;;;;5053369;28;20448;-77
2021/08/14 08:12:41;;;;;;;7.47;4.60;;;38.30;37.10;;;;;;5053817;28;20059;-79
2021/08/14 08:15:09;;;;;;;7.75;5.10;;;38.30;37.00;;;;;;5052445;28;20060;-78
2021/08/14 08:17:35;;;;;;;8.85;4.60;;;38.20;36.80;;;;;;5053906;28;20865;-79
2021/08/14 08:20:02;;;;;;;10.88;8.50;;;37.90;37.20;;;;;;5051932;28;20468;-79
2021/08/14 08:22:28;;;;;;;5.75;4.43;;;37.70;37.40;;;;;;5053453;28;20078;-80
2021/08/14 08:24:54;;;;;;;9.73;4.43;;;37.50;37.20;;;;;;5051823;28;20021;-80
2021/08/14 08:27:19;;;;;;;10.20;6.25;;;37.30;37.40;;;;;;5053468;28;20091;-79
2021/08/14 08:29:45;;;;;;;6.90;4.60;;;37.20;37.70;;;;;;5053414;28;20135;-78
2021/08/14 08:32:11;;;;;;;19.98;11.68;;;37.00;37.70;;;;;;5051657;28;20033;-77
2021/08/14 08:34:37;;;;;;;18.67;12.95;;;36.80;37.60;;;;;;5053138;28;20029;-78
2021/08/14 08:37:03;;;;;;;7.93;5.45;;;36.50;37.80;;;;;;5053008;28;20147;-78
2021/08/14 08:39:31;;;;;;;4.82;4.30;;;36.20;37.90;;;;;;5052905;28;20055;-79
2021/08/14 08:41:58;;;;;;;7.60;4.18;;;36.00;38.00;;;;;;5052504;28;20467;-79
2021/08/14 08:44:24;;;;;;;10.07;7.25;;;35.90;37.90;;;;;;5052628;28;20021;-79
2021/08/14 08:46:50;;;;;;;8.77;4.43;;;35.90;38.10;;;;;;5052954;28;20086;-79
2021/08/14 08:49:20;;;;;;;10.65;5.38;;;35.80;38.10;;;;;;5052801;28;20210;-79
2021/08/14 08:51:47;;;;;;;5.35;4.35;;;35.70;38.20;;;;;;5053213;28;20483;-79
2021/08/14 08:54:14;;;;;;;5.47;3.95;;;35.70;38.40;;;;;;5053395;28;20025;-79
2021/08/14 08:56:40;;;;;;;8.13;4.00;;;35.50;38.40;;;;;;5052561;28;20517;-77
2021/08/14 08:59:06;;;;;;;5.32;4.28;;;35.50;38.60;;;;;;5052681;28;20473;-78
2021/08/14 09:01:32;;;;;;;11.75;4.57;;;35.40;38.60;;;;;;5052508;28;20425;-79
2021/08/14 09:04:22;;;;;;;5.45;4.70;;;35.40;38.90;;;;;;5052818;28;20100;-78
2021/08/14 09:06:48;;;;;;;8.00;4.35;;;35.40;39.10;;;;;;5051988;28;20021;-76
2021/08/14 09:09:14;;;;;;;11.23;5.28;;;35.30;39.10;;;;;;5052517;28;20021;-77
2021/08/14 09:11:48;;;;;;;5.80;4.35;;;35.30;38.80;;;;;;5052624;28;20519;-77
2021/08/14 09:14:14;;;;;;;9.65;5.00;;;35.00;38.40;;;;;;5052338;28;20036;-80
2021/08/14 09:16:39;;;;;;;10.48;6.85;;;34.70;38.50;;;;;;5052474;28;20021;-78
2021/08/14 09:19:05;;;;;;;9.13;5.43;;;34.40;39.10;;;;;;5052463;28;20517;-79
2021/08/14 09:21:41;;;;;;;5.72;4.65;;;34.20;39.60;;;;;;5050962;28;20080;-78
2021/08/14 09:24:08;;;;;;;7.07;4.38;;;34.10;39.40;;;;;;5052045;28;20039;-78
2021/08/14 09:26:46;;;;;;;5.53;4.30;;;34.20;39.70;;;;;;5051891;28;20356;-78
2021/08/14 09:29:12;;;;;;;9.35;4.38;;;34.10;39.30;;;;;;5052118;28;20051;-80
2021/08/14 09:31:53;;;;;;;11.13;5.57;;;34.10;39.50;;;;;;5052263;28;20062;-78
2021/08/14 09:34:21;;;;;;;7.00;3.95;;;34.10;39.60;;;;;;5052067;28;20087;-79
2021/08/14 09:37:05;;;;;;;12.23;5.80;;;34.00;39.20;;;;;;5051798;28;20025;-80
2021/08/14 09:39:32;;;;;;;6.10;5.15;;;33.80;39.40;;;;;;5052052;28;20488;-78
2021/08/14 09:42:06;;;;;;;8.38;4.93;;;33.70;39.80;;;;;;5051662;28;20074;-78
2021/08/14 09:44:35;;;;;;;6.57;4.63;;;33.70;40.10;;;;;;5052241;28;20024;-76
2021/08/14 09:47:09;;;;;;;6.47;4.18;;;33.70;40.00;;;;;;5051058;28;20054;-77
2021/08/14 09:49:48;;;;;;;10.57;4.60;;;33.70;40.10;;;;;;5050467;28;20332;-81
2021/08/14 09:52:23;;;;;;;9.02;4.88;;;33.40;39.60;;;;;;5051645;28;20032;-79
2021/08/14 09:54:49;;;;;;;9.05;4.10;;;33.30;40.10;;;;;;5051403;28;20086;-80
2021/08/14 09:57:20;;;;;;;9.77;4.40;;;33.30;40.10;;;;;;5051520;28;20060;-80
2021/08/14 09:59:47;;;;;;;9.38;6.20;;;33.40;40.20;;;;;;5051150;28;20059;-81
2021/08/14 10:02:26;;;;;;;8.38;4.85;;;33.40;40.30;;;;;;5051396;28;20021;-81
2021/08/14 10:04:57;;;;;;;6.40;4.13;;;33.40;40.10;;;;;;5050420;28;20025;-81
2021/08/14 10:07:24;;;;;;;7.07;4.35;;;33.30;39.90;;;;;;5051582;28;20021;-80
2021/08/14 10:09:50;;;;;;;12.43;6.70;;;33.10;39.90;;;;;;5051204;28;20112;-80
2021/08/14 10:12:18;;;;;;;6.20;4.35;;;32.80;40.20;;;;;;5050769;28;20031;-80
2021/08/14 10:14:46;;;;;;;8.77;4.45;;;32.80;40.30;;;;;;5051514;28;20060;-81
2021/08/14 10:17:16;;;;;;;6.95;4.68;;;32.80;40.10;;;;;;5051434;28;20029;-80
2021/08/14 10:19:42;;;;;;;6.68;4.78;;;32.70;40.30;;;;;;5050136;28;20029;-80
2021/08/14 10:22:09;;;;;;;8.32;5.55;;;32.60;40.10;;;;;;5051124;28;20028;-80
2021/08/14 10:24:43;;;;;;;7.82;4.75;;;32.40;40.60;;;;;;5051364;28;20109;-80
2021/08/14 10:27:14;;;;;;;5.90;4.43;;;32.30;40.80;;;;;;5051288;28;20031;-80
2021/08/14 10:29:48;;;;;;;8.15;4.25;;;32.40;40.90;;;;;;5051338;28;20021;-81
2021/08/14 10:32:32;;;;;;;11.80;4.97;;;32.40;41.00;;;;;;5051225;28;20032;-80
2021/08/14 10:35:12;;;;;;;10.18;5.45;;;32.40;40.50;;;;;;5051761;28;20029;-80
2021/08/14 10:37:40;;;;;;;12.30;4.67;;;32.40;40.70;;;;;;5051189;28;20100;-80
2021/08/14 10:40:06;;;;;;;8.80;4.25;;;32.40;40.80;;;;;;5055226;28;20025;-81
2021/08/14 10:42:53;;;;;;;7.05;4.60;;;32.40;40.60;;;;;;5055198;28;20021;-81
2021/08/14 10:45:34;;;;;;;10.50;4.97;;;32.40;40.70;;;;;;5055430;28;20099;-80
2021/08/14 10:48:04;;;;;;;5.85;4.13;;;32.40;40.50;;;;;;5055718;28;20021;-80
2021/08/14 10:50:33;;;;;;;6.60;4.22;;;32.40;40.40;;;;;;5055502;28;20344;-80
2021/08/14 10:53:11;;;;;;;7.80;4.40;;;32.40;40.60;;;;;;5055721;28;20032;-80
2021/08/14 10:55:41;;;;;;;6.10;4.22;;;32.40;40.70;;;;;;5055203;28;20512;-80
2021/08/14 10:58:23;;;;;;;6.75;4.78;;;32.40;40.60;;;;;;5054821;28;20033;-81
2021/08/14 11:00:50;;;;;;;10.35;5.78;;;32.40;40.70;;;;;;5055163;28;20028;-81
2021/08/14 11:03:19;;;;;;;8.15;5.20;;;32.40;40.70;;;;;;5054926;28;20032;-82
2021/08/14 11:05:46;;;;;;;10.20;5.68;;;32.40;40.70;;;;;;5054617;28;20029;-80
2021/08/14 11:08:26;;;;;;;6.30;4.55;;;32.40;40.80;;;;;;5054923;28;20041;-81
2021/08/14 11:10:52;;;;;;;8.40;4.75;;;32.40;40.40;;;;;;5055006;28;20499;-79
2021/08/14 11:13:39;;;;;;;10.32;4.50;;;32.20;40.30;;;;;;5055341;28;20479;-81
2021/08/14 11:16:05;;;;;;;6.20;4.28;;;32.00;40.20;;;;;;5054431;28;20021;-82
2021/08/14 11:18:57;;;;;;;7.35;4.30;;;31.80;40.40;;;;;;5055328;28;20036;-81
2021/08/14 11:21:45;;;;;;;7.82;4.18;;;31.70;40.50;;;;;;5055749;28;20096;-81
2021/08/14 11:24:38;;;;;;;13.02;4.75;;;31.70;40.40;;;;;;5054884;28;20019;-81
2021/08/14 11:27:28;;;;;;;8.35;4.32;;;31.40;40.30;;;;;;5053933;28;20070;-82
2021/08/14 11:30:01;;;;;;;11.00;4.55;;;31.20;40.80;;;;;;5053392;28;20044;-81
2021/08/14 11:32:28;;;;;;;6.30;4.15;;;31.00;40.70;;;;;;5055033;28;20105;-80
2021/08/14 11:34:56;;;;;;;8.00;4.57;;;30.90;41.00;;;;;;5053835;28;20025;-81
2021/08/14 11:37:22;;;;;;;5.85;4.30;;;30.70;41.00;;;;;;5053875;28;20036;-82
2021/08/14 11:39:59;;;;;;;8.30;4.45;;;30.50;41.00;;;;;;5052867;28;20415;-81
2021/08/14 11:42:27;;;;;;;7.30;4.57;;;30.30;41.50;;;;;;5054048;28;20100;-81
2021/08/14 11:44:55;;;;;;;6.78;5.50;;;30.30;41.60;;;;;;5052313;28;20428;-79
2021/08/14 11:47:30;;;;;;;6.55;4.70;;;30.40;41.70;;;;;;5053998;28;20024;-81
2021/08/14 11:49:57;;;;;;;7.60;4.47;;;30.40;41.70;;;;;;5053644;28;20094;-82
2021/08/14 11:52:25;;;;;;;5.40;4.00;;;30.50;41.70;;;;;;5055331;28;20041;-80
2021/08/14 11:54:56;;;;;;;7.88;4.20;;;30.50;41.50;;;;;;5055052;28;20025;-80
2021/08/14 11:57:28;;;;;;;9.85;4.57;;;30.60;41.60;;;;;;5055915;28;20111;-79
2021/08/14 11:59:54;;;;;;;5.50;4.47;;;30.50;41.50;;;;;;5056436;28;20085;-79
2021/08/14 12:02:25;;;;;;;4.97;3.97;;;30.30;41.40;;;;;;5055251;28;20543;-83
2021/08/14 12:04:51;;;;;;;6.17;4.73;;;30.20;41.30;;;;;;5053613;28;20017;-81
2021/08/14 12:07:17;;;;;;;11.65;5.57;;;30.00;41.80;;;;;;5053384;28;20028;-81
2021/08/14 12:09:43;;;;;;;11.38;4.95;;;30.00;42.40;;;;;;5056474;28;20033;-81
2021/08/14 12:12:18;;;;;;;10.38;5.13;;;30.10;42.40;;;;;;5054563;28;20037;-81
2021/08/14 12:14:43;;;;;;;7.95;5.07;;;30.30;42.40;;;;;;5054049;28;20029;-82
2021/08/14 12:17:09;;;;;;;6.80;4.65;;;30.40;42.10;;;;;;5054422;28;20513;-81
2021/08/14 12:19:49;;;;;;;7.45;5.20;;;30.40;41.60;;;;;;5053871;28;20416;-82
2021/08/14 12:22:16;;;;;;;5.18;4.00;;;30.30;41.80;;;;;;5054104;28;20032;-81
2021/08/14 12:24:44;;;;;;;7.97;4.95;;;30.10;41.70;;;;;;5054299;28;20021;-79
2021/08/14 12:27:23;;;;;;;5.22;4.30;;;30.00;41.60;;;;;;5053566;28;20048;-80
2021/08/14 12:29:49;;;;;;;7.10;4.40;;;29.80;41.70;;;;;;5053666;28;20100;-79
2021/08/14 12:32:14;;;;;;;6.90;4.13;;;29.70;42.10;;;;;;5054258;28;20135;-79
2021/08/14 12:34:42;;;;;;;6.47;4.28;;;29.60;42.00;;;;;;5054597;28;20028;-80
2021/08/14 12:37:13;;;;;;;11.05;4.57;;;29.70;42.20;;;;;;5054567;28;20151;-79
2021/08/14 12:39:55;;;;;;;8.07;3.70;;;29.70;42.30;;;;;;5054280;28;20029;-80